Airfield :
LOGIN :

Register | Disclaimer

   EN    FR    IT 

 










Legend :    VFR   Marginal VFR   IFR   Intensive IFR   Very Intensive IFR
Visi :
Ceiling :
>= 8 km
>= 3000ft
5 to 8 km
1000 to 3000 ft
1500m to 5 km
500 to 1000 ft
800 to 1500m
200 to 500 ft
< 800m
< 200 ft
Symbols :   Thunderstorms  Fog  Heavy snow  Heavy precipitations  Wind > 20 kt
SIGMETs :     Misc.  Thunderstorms  Icing  Turbulence  Mountain Waves  Volcanic Ashes






- Airport Elevation : 1465 ft


LSMP - Payerne

CURRENT METAR :
  • 301650Z AUTO 33007KT 290V020 9999NDV FEW086 25/17 Q1011 RMK

EXPIRED METARs :
  • 301620Z AUTO 31009KT 280V350 9999NDV FEW096 26/17 Q1011 RMK
  • 301550Z AUTO 31011KT 250V350 9999NDV FEW083 28/17 Q1011 RMK
  • 301450Z AUTO 22010KT 200V260 9999NDV NCD 30/13 Q1010 RMK
  • 301420Z 23012KT CAVOK 30/13 Q1010 RMK BLU

Expired Forecast.



MET'MAP, your aeronautical weather chart ! - Copyright ORBIFLY December 2007 - Disclaimer

ORBIFLY MET'MAP TEAM :

Programming & Development : Alexandra Zaïnal
Original concept : Baudouin d'Aumeries
Technical & hardware support : Manuel Goepfert
Assistance : Marc-Olivier Méhu




SOURCES & CREDITS :

   NOAA